Time;durP1;ratioP1;P1;durP2;ratioP2;P2;SDS_P1;SDS_P2;PMS_P1;PMS_P2;Temp;Humidity;BMP_temperature;BMP_pressure;BME280_temperature;BME280_humidity;BME280_pressure;Samples;Min_cycle;Max_cycle;Signal;HPM_P1;HPM_P2
2022/04/24 00:00:41;;;;;;;;;;;9.50;99.90;;;;;;5126022;27;19924;-71
2022/04/24 00:03:08;;;;;;;;;;;9.60;99.90;;;;;;5116003;28;19987;-70
2022/04/24 00:05:35;;;;;;;;;;;9.50;99.90;;;;;;5121967;28;19928;-70
2022/04/24 00:08:01;;;;;;;;;;;9.50;99.90;;;;;;5127505;28;19920;-70
2022/04/24 00:10:29;;;;;;;;;;;9.50;99.90;;;;;;5127734;28;20111;-70
2022/04/24 00:12:56;;;;;;;;;;;9.50;99.90;;;;;;5126954;28;19920;-70
2022/04/24 00:15:22;;;;;;;;;;;9.40;99.90;;;;;;5127071;28;20207;-71
2022/04/24 00:17:49;;;;;;;;;;;9.40;99.90;;;;;;5127205;28;19920;-70
2022/04/24 00:20:16;;;;;;;;;;;9.40;99.90;;;;;;5127425;28;19927;-71
2022/04/24 00:22:42;;;;;;;;;;;9.30;99.90;;;;;;5127105;28;19924;-71
2022/04/24 00:25:09;;;;;;;;;;;9.30;99.90;;;;;;5127268;28;20114;-71
2022/04/24 00:27:37;;;;;;;;;;;9.40;99.90;;;;;;5125090;28;19924;-71
2022/04/24 00:30:04;;;;;;;;;;;9.30;99.90;;;;;;5117214;28;19920;-71
2022/04/24 00:32:31;;;;;;;;;;;9.30;99.90;;;;;;5126006;28;19919;-71
2022/04/24 00:34:57;;;;;;;;;;;9.30;99.90;;;;;;5118270;28;19927;-71
2022/04/24 00:37:24;;;;;;;;;;;9.30;99.90;;;;;;5126753;28;19920;-71
2022/04/24 00:39:51;;;;;;;;;;;9.20;99.90;;;;;;5126789;28;19919;-71
2022/04/24 00:42:18;;;;;;;;;;;9.20;99.90;;;;;;5115085;28;19928;-71
2022/04/24 00:44:46;;;;;;;;;;;9.20;99.90;;;;;;5121852;28;19919;-71
2022/04/24 00:47:16;;;;;;;;;;;9.20;99.90;;;;;;5126689;28;19928;-70
2022/04/24 00:49:43;;;;;;;;;;;9.20;99.90;;;;;;5126788;28;19942;-71
2022/04/24 00:52:10;;;;;;;;;;;9.20;99.90;;;;;;5126543;28;19926;-71
2022/04/24 00:54:37;;;;;;;;;;;9.10;99.90;;;;;;5111425;28;19927;-71
2022/04/24 00:57:06;;;;;;;;;;;9.00;99.90;;;;;;5115483;28;19926;-71
2022/04/24 00:59:32;;;;;;;;;;;9.00;99.90;;;;;;5126306;28;19982;-71
2022/04/24 01:02:03;;;;;;;;;;;8.90;99.90;;;;;;5117870;28;19928;-71
2022/04/24 01:04:29;;;;;;;;;;;9.00;99.90;;;;;;5125540;28;19926;-70
2022/04/24 01:06:56;;;;;;;;;;;9.00;99.90;;;;;;5126165;28;19920;-71
2022/04/24 01:09:23;;;;;;;;;;;8.90;99.90;;;;;;5125638;28;19927;-71
2022/04/24 01:11:50;;;;;;;;;;;9.00;99.90;;;;;;5126373;28;19920;-70
2022/04/24 01:14:17;;;;;;;;;;;9.00;99.90;;;;;;5126002;28;19927;-70
2022/04/24 01:16:52;;;;;;;;;;;9.00;99.90;;;;;;5121655;28;19943;-70
2022/04/24 01:19:21;;;;;;;;;;;9.10;99.90;;;;;;5115941;28;19920;-70
2022/04/24 01:21:49;;;;;;;;;;;9.10;99.90;;;;;;5107273;28;20111;-71
2022/04/24 01:24:17;;;;;;;;;;;9.10;99.90;;;;;;5106225;28;19927;-71
2022/04/24 01:26:46;;;;;;;;;;;9.10;99.90;;;;;;5105401;28;19920;-70
2022/04/24 01:29:14;;;;;;;;;;;9.10;99.90;;;;;;5105976;28;20208;-70
2022/04/24 01:31:41;;;;;;;;;;;9.00;99.90;;;;;;5106174;28;20158;-70
2022/04/24 01:34:08;;;;;;;;;;;9.00;99.90;;;;;;5122310;28;19926;-71
2022/04/24 01:36:34;;;;;;;;;;;9.10;99.90;;;;;;5118818;28;19920;-70
2022/04/24 01:39:02;;;;;;;;;;;9.10;99.90;;;;;;5126412;28;20115;-70
2022/04/24 01:41:29;;;;;;;;;;;9.00;99.90;;;;;;5112354;28;19926;-70
2022/04/24 01:44:12;;;;;;;;;;;9.00;99.90;;;;;;5105874;28;19920;-70
2022/04/24 01:46:38;;;;;;;;;;;9.00;99.90;;;;;;5126132;28;19924;-70
2022/04/24 01:49:05;;;;;;;;;;;9.00;99.90;;;;;;5126090;28;19919;-70
2022/04/24 01:51:31;;;;;;;;;;;9.00;99.90;;;;;;5125909;28;19927;-70
2022/04/24 01:53:58;;;;;;;;;;;9.00;99.90;;;;;;5125888;28;19927;-69
2022/04/24 01:56:26;;;;;;;;;;;9.00;99.90;;;;;;5125857;28;19926;-70
2022/04/24 01:58:52;;;;;;;;;;;8.90;99.90;;;;;;5126114;28;19920;-70
2022/04/24 02:01:19;;;;;;;;;;;9.00;99.90;;;;;;5125591;28;20142;-70
2022/04/24 02:03:46;;;;;;;;;;;9.00;99.90;;;;;;5126029;28;20099;-70
2022/04/24 02:06:12;;;;;;;;;;;9.10;99.90;;;;;;5125578;28;20145;-70
2022/04/24 02:08:39;;;;;;;;;;;9.00;99.90;;;;;;5125645;28;20119;-71
2022/04/24 02:11:06;;;;;;;;;;;9.00;99.90;;;;;;5125727;28;19923;-72
2022/04/24 02:13:34;;;;;;;;;;;9.00;99.90;;;;;;5125929;28;19919;-70
2022/04/24 02:16:01;;;;;;;;;;;9.00;99.90;;;;;;5125450;27;20111;-70
2022/04/24 02:18:27;;;;;;;;;;;9.00;99.90;;;;;;5125465;28;19919;-70
2022/04/24 02:20:54;;;;;;;;;;;9.00;99.90;;;;;;5125661;28;19920;-70
2022/04/24 02:23:21;;;;;;;;;;;9.00;99.90;;;;;;5125609;28;19919;-69
2022/04/24 02:25:47;;;;;;;;;;;9.00;99.90;;;;;;5125300;28;19919;-70
2022/04/24 02:28:14;;;;;;;;;;;9.00;99.90;;;;;;5124230;28;20207;-69
2022/04/24 02:30:42;;;;;;;;;;;9.00;99.90;;;;;;5125418;28;19927;-69
2022/04/24 02:33:09;;;;;;;;;;;9.00;99.90;;;;;;5125529;28;19919;-69
2022/04/24 02:35:35;;;;;;;;;;;9.10;99.90;;;;;;5124858;28;19920;-71
2022/04/24 02:38:02;;;;;;;;;;;9.10;99.90;;;;;;5125424;28;20084;-70
2022/04/24 02:40:29;;;;;;;;;;;9.10;99.90;;;;;;5125162;28;19920;-69
2022/04/24 02:42:55;;;;;;;;;;;9.10;99.90;;;;;;5125278;28;19987;-69
2022/04/24 02:45:28;;;;;;;;;;;9.10;99.90;;;;;;5124392;28;19923;-70
2022/04/24 02:47:56;;;;;;;;;;;9.00;99.90;;;;;;5125015;28;19920;-70
2022/04/24 02:50:23;;;;;;;;;;;9.00;99.90;;;;;;5125030;28;20203;-70
2022/04/24 02:52:50;;;;;;;;;;;9.00;99.90;;;;;;5124889;28;19920;-70
2022/04/24 02:55:17;;;;;;;;;;;9.00;99.90;;;;;;5124857;28;19919;-72
2022/04/24 02:57:44;;;;;;;;;;;8.90;99.90;;;;;;5125022;28;19942;-70
2022/04/24 03:00:11;;;;;;;;;;;8.90;99.90;;;;;;5124920;28;19920;-70
2022/04/24 03:02:42;;;;;;;;;;;8.90;99.90;;;;;;5124716;28;20506;-70
2022/04/24 03:05:10;;;;;;;;;;;8.90;99.90;;;;;;5124685;28;19988;-73
2022/04/24 03:07:39;;;;;;;;;;;8.90;99.90;;;;;;5104026;28;20128;-71
2022/04/24 03:10:08;;;;;;;;;;;8.90;99.90;;;;;;5104126;28;19920;-70
2022/04/24 03:12:35;;;;;;;;;;;9.00;99.90;;;;;;5104001;28;19920;-70
2022/04/24 03:15:01;;;;;;;;;;;9.00;99.90;;;;;;5104056;28;19920;-70
2022/04/24 03:17:30;;;;;;;;;;;9.00;99.90;;;;;;5123731;28;19919;-70
2022/04/24 03:19:56;;;;;;;;;;;9.00;99.90;;;;;;5124514;28;19919;-69
2022/04/24 03:22:24;;;;;;;;;;;9.00;99.90;;;;;;5124244;28;19926;-70
2022/04/24 03:24:51;;;;;;;;;;;8.90;99.90;;;;;;5124117;28;19919;-70
2022/04/24 03:27:17;;;;;;;;;;;8.90;99.90;;;;;;5120802;28;19919;-70
2022/04/24 03:29:44;;;;;;;;;;;8.90;99.90;;;;;;5109572;28;20114;-69
2022/04/24 03:32:11;;;;;;;;;;;8.90;99.90;;;;;;5124483;28;20123;-69
2022/04/24 03:34:38;;;;;;;;;;;8.90;99.90;;;;;;5113641;28;19943;-70
2022/04/24 03:37:04;;;;;;;;;;;9.00;99.90;;;;;;5120218;28;19987;-70
2022/04/24 03:39:32;;;;;;;;;;;9.00;99.90;;;;;;5103960;28;19920;-70
2022/04/24 03:41:59;;;;;;;;;;;9.00;99.90;;;;;;5103594;28;20085;-69
2022/04/24 03:44:26;;;;;;;;;;;8.90;99.90;;;;;;5103990;28;19920;-69
2022/04/24 03:46:53;;;;;;;;;;;9.00;99.90;;;;;;5103750;28;19924;-69
2022/04/24 03:49:19;;;;;;;;;;;9.00;99.90;;;;;;5121414;28;19927;-70
2022/04/24 03:51:46;;;;;;;;;;;9.00;99.90;;;;;;5124118;28;20134;-70
2022/04/24 03:54:12;;;;;;;;;;;9.00;99.90;;;;;;5124277;28;19926;-70
2022/04/24 03:56:40;;;;;;;;;;;9.00;99.90;;;;;;5124127;28;19920;-69
2022/04/24 03:59:07;;;;;;;;;;;9.00;99.90;;;;;;5124282;28;19988;-69
2022/04/24 04:01:34;;;;;;;;;;;9.00;99.90;;;;;;5124213;28;19920;-70
2022/04/24 04:04:00;;;;;;;;;;;9.00;99.90;;;;;;5114535;28;19920;-69
2022/04/24 04:06:27;;;;;;;;;;;9.00;99.90;;;;;;5124019;28;19926;-70
2022/04/24 04:08:54;;;;;;;;;;;8.90;99.90;;;;;;5124135;28;19920;-69
2022/04/24 04:11:20;;;;;;;;;;;8.80;99.90;;;;;;5124022;28;19926;-70
2022/04/24 04:13:53;;;;;;;;;;;8.80;99.90;;;;;;5124118;28;19920;-69
2022/04/24 04:16:20;;;;;;;;;;;8.80;99.90;;;;;;5123598;28;19951;-72
2022/04/24 04:18:46;;;;;;;;;;;8.80;99.90;;;;;;5124031;28;19919;-70
2022/04/24 04:21:13;;;;;;;;;;;8.90;99.90;;;;;;5123920;28;19926;-70
2022/04/24 04:23:40;;;;;;;;;;;8.90;99.90;;;;;;5124008;28;19924;-70
2022/04/24 04:26:06;;;;;;;;;;;8.90;99.90;;;;;;5123806;28;19935;-70
2022/04/24 04:28:41;;;;;;;;;;;8.90;99.90;;;;;;5123078;28;19926;-69
2022/04/24 04:31:09;;;;;;;;;;;8.90;99.90;;;;;;5123906;28;19920;-70
2022/04/24 04:33:35;;;;;;;;;;;9.00;99.90;;;;;;5124002;28;19927;-70
2022/04/24 04:36:02;;;;;;;;;;;9.10;99.90;;;;;;5123648;28;19926;-70
2022/04/24 04:38:28;;;;;;;;;;;9.00;99.90;;;;;;5123846;28;19982;-70
2022/04/24 04:40:55;;;;;;;;;;;9.00;99.90;;;;;;5126141;28;19927;-70
2022/04/24 04:43:21;;;;;;;;;;;9.00;99.90;;;;;;5127521;28;19927;-70
2022/04/24 04:45:52;;;;;;;;;;;9.00;99.90;;;;;;5126651;28;19926;-70
2022/04/24 04:48:20;;;;;;;;;;;9.00;99.90;;;;;;5127561;28;19926;-70
2022/04/24 04:50:47;;;;;;;;;;;9.00;99.90;;;;;;5127095;28;20364;-70
2022/04/24 04:53:13;;;;;;;;;;;9.00;99.90;;;;;;5127485;28;19923;-71
2022/04/24 04:55:40;;;;;;;;;;;9.00;99.90;;;;;;5126767;27;20215;-71
2022/04/24 04:58:06;;;;;;;;;;;9.10;99.90;;;;;;5127395;28;20020;-70
2022/04/24 05:00:33;;;;;;;;;;;9.10;99.90;;;;;;5127248;27;19950;-70
2022/04/24 05:03:00;;;;;;;;;;;9.10;99.90;;;;;;5127077;28;19919;-70
2022/04/24 05:05:28;;;;;;;;;;;9.10;99.90;;;;;;5126692;28;19919;-70
2022/04/24 05:08:00;;;;;;;;;;;9.10;99.90;;;;;;5126906;28;19920;-70
2022/04/24 05:10:26;;;;;;;;;;;9.10;99.90;;;;;;5127130;28;19926;-70
2022/04/24 05:12:53;;;;;;;;;;;9.10;99.90;;;;;;5126187;28;19926;-70
2022/04/24 05:15:21;;;;;;;;;;;9.10;99.90;;;;;;5125950;28;19919;-71
2022/04/24 05:17:48;;;;;;;;;;;9.10;99.90;;;;;;5126926;28;19926;-70
2022/04/24 05:20:14;;;;;;;;;;;9.10;99.90;;;;;;5126784;28;19926;-69
2022/04/24 05:22:42;;;;;;;;;;;9.10;99.90;;;;;;5126337;28;19927;-70
2022/04/24 05:25:10;;;;;;;;;;;9.10;99.90;;;;;;5126558;28;19926;-70
2022/04/24 05:27:42;;;;;;;;;;;9.10;99.90;;;;;;5116939;28;20211;-70
2022/04/24 05:30:09;;;;;;;;;;;9.10;99.90;;;;;;5126458;28;20111;-71
2022/04/24 05:32:39;;;;;;;;;;;9.10;99.90;;;;;;5126073;28;19919;-70
2022/04/24 05:35:07;;;;;;;;;;;9.10;99.90;;;;;;5125606;28;19920;-70
2022/04/24 05:37:33;;;;;;;;;;;9.10;99.90;;;;;;5118207;28;20111;-70
2022/04/24 05:40:01;;;;;;;;;;;9.10;99.90;;;;;;5126480;28;20354;-70
2022/04/24 05:42:28;;;;;;;;;;;9.20;99.90;;;;;;5108239;28;19921;-70
2022/04/24 05:45:04;;;;;;;;;;;9.20;99.90;;;;;;5113388;28;20324;-70
2022/04/24 05:47:31;;;;;;;;;;;9.20;99.90;;;;;;5125611;28;19961;-70
2022/04/24 05:49:57;;;;;;;;;;;9.20;99.90;;;;;;5125717;28;19920;-70
2022/04/24 05:52:24;;;;;;;;;;;9.20;99.90;;;;;;5125614;28;20211;-70
2022/04/24 05:54:51;;;;;;;;;;;9.20;99.90;;;;;;5126197;28;19964;-70
2022/04/24 05:57:19;;;;;;;;;;;9.20;99.90;;;;;;5125309;28;19920;-70
2022/04/24 05:59:45;;;;;;;;;;;9.10;99.90;;;;;;5113965;28;19928;-70
2022/04/24 06:02:12;;;;;;;;;;;9.10;99.90;;;;;;5119026;28;20266;-70
2022/04/24 06:04:39;;;;;;;;;;;9.10;99.90;;;;;;5113305;28;20226;-70
2022/04/24 06:07:05;;;;;;;;;;;9.10;99.90;;;;;;5125779;28;19965;-70
2022/04/24 06:09:32;;;;;;;;;;;9.20;99.90;;;;;;5125869;28;19923;-71
2022/04/24 06:12:00;;;;;;;;;;;9.20;99.90;;;;;;5125446;27;19920;-70
2022/04/24 06:14:28;;;;;;;;;;;9.20;99.90;;;;;;5125822;28;19920;-70
2022/04/24 06:16:54;;;;;;;;;;;9.20;99.90;;;;;;5124700;28;20229;-70
2022/04/24 06:19:21;;;;;;;;;;;9.20;99.90;;;;;;5125137;28;19920;-70
2022/04/24 06:21:48;;;;;;;;;;;9.20;99.90;;;;;;5125442;28;19923;-70
2022/04/24 06:24:14;;;;;;;;;;;9.20;99.90;;;;;;5125265;28;20215;-70
2022/04/24 06:26:44;;;;;;;;;;;9.20;99.90;;;;;;5124886;28;20132;-70
2022/04/24 06:29:11;;;;;;;;;;;9.10;99.90;;;;;;5121119;28;19920;-70
2022/04/24 06:31:38;;;;;;;;;;;9.10;99.90;;;;;;5112910;28;19927;-70
2022/04/24 06:34:05;;;;;;;;;;;9.10;99.90;;;;;;5106089;28;19920;-69
2022/04/24 06:36:31;;;;;;;;;;;9.10;99.90;;;;;;5120734;28;19926;-69
2022/04/24 06:39:00;;;;;;;;;;;9.10;99.90;;;;;;5125196;28;19919;-70
2022/04/24 06:41:27;;;;;;;;;;;9.10;99.90;;;;;;5116695;28;19927;-70
2022/04/24 06:43:53;;;;;;;;;;;9.20;99.90;;;;;;5104069;28;20212;-70
2022/04/24 06:46:20;;;;;;;;;;;9.10;99.90;;;;;;5124748;28;19919;-69
2022/04/24 06:48:48;;;;;;;;;;;9.00;99.90;;;;;;5125037;28;19926;-70
2022/04/24 06:51:14;;;;;;;;;;;8.90;99.90;;;;;;5124670;28;19927;-70
2022/04/24 06:53:41;;;;;;;;;;;8.80;99.90;;;;;;5124752;28;19919;-70
2022/04/24 06:56:08;;;;;;;;;;;8.80;99.90;;;;;;5124670;28;20111;-70
2022/04/24 06:58:35;;;;;;;;;;;8.70;99.90;;;;;;5119399;28;19920;-71
2022/04/24 07:01:01;;;;;;;;;;;8.70;99.90;;;;;;5106796;28;20245;-70
2022/04/24 07:03:29;;;;;;;;;;;8.60;99.90;;;;;;5123970;28;20107;-70
2022/04/24 07:05:57;;;;;;;;;;;8.70;99.90;;;;;;5124557;28;19926;-70
2022/04/24 07:08:24;;;;;;;;;;;8.50;99.90;;;;;;5124870;28;19919;-70
2022/04/24 07:10:52;;;;;;;;;;;8.30;99.90;;;;;;5124247;28;19919;-70
2022/04/24 07:13:19;;;;;;;;;;;8.20;99.90;;;;;;5124832;28;19920;-70
2022/04/24 07:15:46;;;;;;;;;;;8.10;99.90;;;;;;5124135;28;19919;-70
2022/04/24 07:18:12;;;;;;;;;;;7.90;99.90;;;;;;5124722;28;19920;-70
2022/04/24 07:20:46;;;;;;;;;;;7.90;99.90;;;;;;5123685;28;19920;-70
2022/04/24 07:23:15;;;;;;;;;;;7.80;99.90;;;;;;5124278;28;20211;-69
2022/04/24 07:25:43;;;;;;;;;;;7.80;99.90;;;;;;5123837;28;20211;-71
2022/04/24 07:28:10;;;;;;;;;;;7.80;99.90;;;;;;5113919;28;19920;-70
2022/04/24 07:30:37;;;;;;;;;;;7.70;99.90;;;;;;5112273;28;19926;-70
2022/04/24 07:33:04;;;;;;;;;;;7.70;99.90;;;;;;5116931;28;19942;-70
2022/04/24 07:35:31;;;;;;;;;;;7.70;99.90;;;;;;5101463;28;19987;-70
2022/04/24 07:37:58;;;;;;;;;;;7.70;99.90;;;;;;5113576;28;20238;-72
2022/04/24 07:40:27;;;;;;;;;;;7.70;99.90;;;;;;5124638;28;19920;-69
2022/04/24 07:42:55;;;;;;;;;;;7.70;99.90;;;;;;5124099;28;19919;-69
2022/04/24 07:45:22;;;;;;;;;;;7.80;99.90;;;;;;5123649;28;19976;-69
2022/04/24 07:47:49;;;;;;;;;;;7.70;99.90;;;;;;5124307;28;19926;-69
2022/04/24 07:50:16;;;;;;;;;;;7.80;99.90;;;;;;5124361;28;19926;-69
2022/04/24 07:52:43;;;;;;;;;;;7.70;99.90;;;;;;5123939;28;20166;-69
2022/04/24 07:55:13;;;;;;;;;;;7.80;99.90;;;;;;5123765;28;19986;-69
2022/04/24 07:57:41;;;;;;;;;;;7.70;99.90;;;;;;5124288;28;20132;-68
2022/04/24 08:00:09;;;;;;;;;;;7.70;99.90;;;;;;5123963;28;20327;-69
2022/04/24 08:02:39;;;;;;;;;;;7.60;99.90;;;;;;5117598;28;19920;-69
2022/04/24 08:05:06;;;;;;;;;;;7.60;99.90;;;;;;5124331;28;20218;-68
2022/04/24 08:07:32;;;;;;;;;;;7.50;99.90;;;;;;5123821;28;19927;-69
2022/04/24 08:10:00;;;;;;;;;;;7.50;99.90;;;;;;5124020;28;19920;-70
2022/04/24 08:12:26;;;;;;;;;;;7.50;99.90;;;;;;5123762;28;20226;-69
2022/04/24 08:14:54;;;;;;;;;;;7.40;99.90;;;;;;5126495;28;20207;-70
2022/04/24 08:17:21;;;;;;;;;;;7.50;99.90;;;;;;5127764;28;19920;-70
2022/04/24 08:19:47;;;;;;;;;;;7.50;99.90;;;;;;5127986;28;19920;-70
2022/04/24 08:22:14;;;;;;;;;;;7.50;99.90;;;;;;5127986;28;19928;-69
2022/04/24 08:24:40;;;;;;;;;;;7.50;99.90;;;;;;5127898;28;19919;-69
2022/04/24 08:27:07;;;;;;;;;;;7.50;99.90;;;;;;5127622;28;19919;-69
2022/04/24 08:29:33;;;;;;;;;;;7.50;99.90;;;;;;5127874;28;19927;-69
2022/04/24 08:32:01;;;;;;;;;;;7.40;99.90;;;;;;5127510;28;19926;-69
2022/04/24 08:34:28;;;;;;;;;;;7.40;99.90;;;;;;5127299;28;20116;-69
2022/04/24 08:36:55;;;;;;;;;;;7.50;99.90;;;;;;5126654;28;19924;-69
2022/04/24 08:39:21;;;;;;;;;;;7.50;99.90;;;;;;5127113;28;19992;-70
2022/04/24 08:41:49;;;;;;;;;;;7.40;99.90;;;;;;5127442;28;19988;-69
2022/04/24 08:44:15;;;;;;;;;;;7.50;99.90;;;;;;5111491;28;19923;-70
2022/04/24 08:46:43;;;;;;;;;;;7.50;99.90;;;;;;5127174;28;19920;-72
2022/04/24 08:49:11;;;;;;;;;;;7.50;99.90;;;;;;5106987;28;19927;-71
2022/04/24 08:51:40;;;;;;;;;;;7.40;99.90;;;;;;5112937;28;19942;-71
2022/04/24 08:54:07;;;;;;;;;;;7.50;99.90;;;;;;5126929;28;19973;-71
2022/04/24 08:56:33;;;;;;;;;;;7.60;99.90;;;;;;5126820;28;19920;-71
2022/04/24 08:59:00;;;;;;;;;;;7.50;99.90;;;;;;5116921;28;19920;-72
2022/04/24 09:01:27;;;;;;;;;;;7.50;99.90;;;;;;5112005;28;19920;-72
2022/04/24 09:03:54;;;;;;;;;;;7.60;99.90;;;;;;5121741;27;20085;-68
2022/04/24 09:06:23;;;;;;;;;;;7.60;99.90;;;;;;5107075;28;20212;-68
2022/04/24 09:08:50;;;;;;;;;;;7.60;99.90;;;;;;5106465;28;19920;-69
2022/04/24 09:11:19;;;;;;;;;;;7.70;99.90;;;;;;5106303;28;19926;-72
2022/04/24 09:16:34;;;;;;;;;;;7.80;99.90;;;;;;5105785;28;20152;-69
2022/04/24 09:19:01;;;;;;;;;;;7.90;99.90;;;;;;5109316;28;19942;-68
2022/04/24 09:21:29;;;;;;;;;;;7.90;99.90;;;;;;5126423;28;19920;-71
2022/04/24 09:23:58;;;;;;;;;;;8.00;99.90;;;;;;5126294;27;19926;-68
2022/04/24 09:26:25;;;;;;;;;;;8.00;99.90;;;;;;5125437;28;19919;-68
2022/04/24 09:28:51;;;;;;;;;;;8.00;99.90;;;;;;5125865;28;19919;-68
2022/04/24 09:31:18;;;;;;;;;;;8.10;99.90;;;;;;5126270;28;20262;-68
2022/04/24 09:33:44;;;;;;;;;;;8.20;99.90;;;;;;5126498;28;19919;-71
2022/04/24 09:36:12;;;;;;;;;;;8.20;99.90;;;;;;5125837;28;19926;-69
2022/04/24 09:38:46;;;;;;;;;;;8.30;99.90;;;;;;5126143;28;19983;-70
2022/04/24 09:41:16;;;;;;;;;;;8.40;99.90;;;;;;5126235;28;19923;-70
2022/04/24 09:43:43;;;;;;;;;;;8.40;99.90;;;;;;5126230;28;19920;-73
2022/04/24 09:46:10;;;;;;;;;;;8.50;99.90;;;;;;5125978;28;19926;-71
2022/04/24 09:48:36;;;;;;;;;;;8.60;99.90;;;;;;5126361;28;19920;-71
2022/04/24 09:51:03;;;;;;;;;;;8.70;99.90;;;;;;5126074;27;19941;-71
2022/04/24 09:53:30;;;;;;;;;;;8.70;99.90;;;;;;5126378;28;20115;-73
2022/04/24 09:55:59;;;;;;;;;;;8.70;99.90;;;;;;5125307;28;19978;-71
2022/04/24 09:58:26;;;;;;;;;;;8.70;99.90;;;;;;5117709;28;19926;-71
2022/04/24 10:00:53;;;;;;;;;;;8.90;99.90;;;;;;5114034;28;19928;-71
2022/04/24 10:03:20;;;;;;;;;;;9.10;99.90;;;;;;5125094;28;19919;-71
2022/04/24 10:05:47;;;;;;;;;;;9.20;99.90;;;;;;5124928;28;19926;-74
2022/04/24 10:08:15;;;;;;;;;;;9.40;99.90;;;;;;5109101;28;20141;-71
2022/04/24 10:10:41;;;;;;;;;;;9.50;99.90;;;;;;5109237;28;19951;-71
2022/04/24 10:13:11;;;;;;;;;;;9.60;99.90;;;;;;5118049;28;20259;-70
2022/04/24 10:15:39;;;;;;;;;;;9.70;99.90;;;;;;5119635;28;19920;-70
2022/04/24 10:18:16;;;;;;;;;;;9.60;99.90;;;;;;5106698;28;20243;-71
2022/04/24 10:20:50;;;;;;;;;;;9.60;99.90;;;;;;5111326;28;19920;-71
2022/04/24 10:23:27;;;;;;;;;;;9.70;99.90;;;;;;5125328;28;19920;-71
2022/04/24 10:25:53;;;;;;;;;;;9.80;99.90;;;;;;5104294;28;20150;-71
2022/04/24 10:28:21;;;;;;;;;;;9.90;99.90;;;;;;5104797;28;19919;-70
2022/04/24 10:31:00;;;;;;;;;;;9.90;99.90;;;;;;5104653;28;19926;-71
2022/04/24 10:33:28;;;;;;;;;;;9.90;99.90;;;;;;5119611;28;20279;-70
2022/04/24 10:35:56;;;;;;;;;;;10.10;99.90;;;;;;5104152;28;19927;-70
2022/04/24 10:38:23;;;;;;;;;;;10.30;99.90;;;;;;5109448;28;19927;-70
2022/04/24 10:40:57;;;;;;;;;;;10.30;99.90;;;;;;5114363;28;19919;-69
2022/04/24 10:43:25;;;;;;;;;;;10.40;99.90;;;;;;5124548;28;19957;-69
2022/04/24 10:45:52;;;;;;;;;;;10.50;99.90;;;;;;5124454;28;19968;-69
2022/04/24 10:48:19;;;;;;;;;;;10.50;99.90;;;;;;5117693;28;19920;-68
2022/04/24 10:50:47;;;;;;;;;;;10.50;99.90;;;;;;5123657;28;19951;-71
2022/04/24 10:53:13;;;;;;;;;;;10.50;99.90;;;;;;5124244;28;19947;-68
2022/04/24 10:55:40;;;;;;;;;;;10.50;99.90;;;;;;5104786;28;19926;-68
2022/04/24 10:58:07;;;;;;;;;;;10.40;99.90;;;;;;5105229;28;19928;-68
2022/04/24 11:00:42;;;;;;;;;;;10.50;99.90;;;;;;5125831;28;19954;-69
2022/04/24 11:03:13;;;;;;;;;;;10.50;99.90;;;;;;5117917;28;19932;-70
2022/04/24 11:05:40;;;;;;;;;;;10.40;99.90;;;;;;5115248;28;19927;-69
2022/04/24 11:08:08;;;;;;;;;;;10.40;99.90;;;;;;5111202;28;20241;-69
2022/04/24 11:10:39;;;;;;;;;;;10.30;99.90;;;;;;5119849;28;20238;-69
2022/04/24 11:13:05;;;;;;;;;;;10.30;99.90;;;;;;5117415;28;19920;-69
2022/04/24 11:15:32;;;;;;;;;;;10.20;99.90;;;;;;5119354;28;20169;-70
2022/04/24 11:18:00;;;;;;;;;;;10.10;99.90;;;;;;5103632;28;20116;-71
2022/04/24 11:20:31;;;;;;;;;;;10.10;99.90;;;;;;5113242;28;19926;-70
2022/04/24 11:22:58;;;;;;;;;;;9.90;99.90;;;;;;5124347;28;19927;-71
2022/04/24 11:25:25;;;;;;;;;;;9.90;99.90;;;;;;5123269;28;20233;-73
2022/04/24 11:27:52;;;;;;;;;;;9.90;99.90;;;;;;5124514;28;19920;-71
2022/04/24 11:30:20;;;;;;;;;;;9.90;99.90;;;;;;5124348;28;19920;-71
2022/04/24 11:32:57;;;;;;;;;;;9.90;99.90;;;;;;5122540;28;19976;-69
2022/04/24 11:35:26;;;;;;;;;;;9.80;99.90;;;;;;5123745;28;19976;-73
2022/04/24 11:37:54;;;;;;;;;;;9.80;99.90;;;;;;5115174;28;19948;-71
2022/04/24 11:40:21;;;;;;;;;;;9.70;99.90;;;;;;5103945;28;19920;-71
2022/04/24 11:42:48;;;;;;;;;;;9.70;99.90;;;;;;5102934;28;20204;-71
2022/04/24 11:50:51;;;;;;;;;;;9.60;99.90;;;;;;5114401;28;19972;-68
2022/04/24 11:53:18;;;;;;;;;;;9.60;99.90;;;;;;5117385;28;19927;-70
2022/04/24 11:56:02;;;;;;;;;;;9.60;99.90;;;;;;5112394;28;19919;-70
2022/04/24 11:58:32;;;;;;;;;;;9.50;99.90;;;;;;5118765;28;20298;-70
2022/04/24 12:00:59;;;;;;;;;;;9.50;99.90;;;;;;5120317;28;19944;-70
2022/04/24 12:03:26;;;;;;;;;;;9.50;99.90;;;;;;5127481;28;19920;-70
2022/04/24 12:05:58;;;;;;;;;;;9.50;99.90;;;;;;5119999;28;19920;-70
2022/04/24 12:08:25;;;;;;;;;;;9.50;99.90;;;;;;5123432;28;19965;-70
2022/04/24 12:10:56;;;;;;;;;;;9.50;99.90;;;;;;5121349;28;19951;-70
2022/04/24 12:13:22;;;;;;;;;;;9.50;99.90;;;;;;5127258;28;20115;-71
2022/04/24 12:15:50;;;;;;;;;;;9.50;99.90;;;;;;5127738;28;19919;-72
2022/04/24 12:18:21;;;;;;;;;;;9.50;99.90;;;;;;5122722;28;19920;-71
2022/04/24 12:20:50;;;;;;;;;;;9.40;99.90;;;;;;5106586;28;19922;-71
2022/04/24 12:23:19;;;;;;;;;;;9.30;99.90;;;;;;5127534;28;19924;-71
2022/04/24 12:25:49;;;;;;;;;;;9.30;99.90;;;;;;5127127;28;19920;-71
2022/04/24 12:28:27;;;;;;;;;;;9.30;99.90;;;;;;5127585;28;19972;-70
2022/04/24 12:30:53;;;;;;;;;;;9.30;99.90;;;;;;5108146;28;20263;-71
2022/04/24 12:33:20;;;;;;;;;;;9.30;99.90;;;;;;5117887;28;19927;-70
2022/04/24 12:35:47;;;;;;;;;;;9.20;99.90;;;;;;5112958;28;19926;-70
2022/04/24 12:38:14;;;;;;;;;;;9.20;99.90;;;;;;5121663;28;19970;-70
2022/04/24 12:40:42;;;;;;;;;;;9.10;99.90;;;;;;5111824;28;19920;-70
2022/04/24 12:43:09;;;;;;;;;;;9.10;99.90;;;;;;5106139;28;20203;-70
2022/04/24 12:45:35;;;;;;;;;;;9.10;99.90;;;;;;5109072;28;19926;-70
2022/04/24 12:48:02;;;;;;;;;;;9.10;99.90;;;;;;5114334;28;19933;-70
2022/04/24 12:50:28;;;;;;;;;;;9.10;99.90;;;;;;5118184;28;19927;-69
2022/04/24 12:52:56;;;;;;;;;;;9.10;99.90;;;;;;5118129;28;19920;-70
2022/04/24 12:55:23;;;;;;;;;;;9.10;99.90;;;;;;5120938;28;19920;-69
2022/04/24 12:57:54;;;;;;;;;;;9.10;99.90;;;;;;5122219;28;19919;-69
2022/04/24 13:00:20;;;;;;;;;;;9.20;99.90;;;;;;5124686;28;20119;-70
2022/04/24 13:02:47;;;;;;;;;;;9.30;99.90;;;;;;5126618;28;19980;-69
2022/04/24 13:05:14;;;;;;;;;;;9.30;99.90;;;;;;5123190;27;19963;-70
2022/04/24 13:07:40;;;;;;;;;;;9.30;99.90;;;;;;5114667;28;20216;-70
2022/04/24 13:10:07;;;;;;;;;;;9.30;99.90;;;;;;5113590;28;19920;-70
2022/04/24 13:12:34;;;;;;;;;;;9.30;99.90;;;;;;5125198;28;19986;-70
2022/04/24 13:15:02;;;;;;;;;;;9.30;99.90;;;;;;5115982;27;20208;-69
2022/04/24 13:20:13;;;;;;;;;;;9.20;99.90;;;;;;5117671;28;19953;-69
2022/04/24 13:22:41;;;;;;;;;;;9.10;99.90;;;;;;5126174;28;19992;-70
2022/04/24 13:25:08;;;;;;;;;;;9.10;99.90;;;;;;5111134;28;19927;-70
2022/04/24 13:27:34;;;;;;;;;;;9.10;99.90;;;;;;5110017;28;19938;-70
2022/04/24 13:30:02;;;;;;;;;;;9.10;99.90;;;;;;5116873;28;19919;-69
2022/04/24 13:32:29;;;;;;;;;;;9.10;99.90;;;;;;5112099;28;19920;-70
2022/04/24 13:34:56;;;;;;;;;;;9.10;99.90;;;;;;5105554;28;19920;-70
2022/04/24 13:40:07;;;;;;;;;;;9.00;99.90;;;;;;5108466;28;19959;-70
2022/04/24 13:42:34;;;;;;;;;;;9.10;99.90;;;;;;5124710;28;19920;-69
2022/04/24 13:45:00;;;;;;;;;;;9.10;99.90;;;;;;5121433;28;20018;-69
2022/04/24 13:47:28;;;;;;;;;;;9.10;99.90;;;;;;5125851;28;19920;-71
2022/04/24 13:49:56;;;;;;;;;;;9.00;99.90;;;;;;5119501;28;19931;-70
2022/04/24 13:52:22;;;;;;;;;;;9.00;99.90;;;;;;5117936;28;20171;-69
2022/04/24 13:54:50;;;;;;;;;;;9.00;99.90;;;;;;5110118;28;19926;-69
2022/04/24 13:57:16;;;;;;;;;;;8.90;99.90;;;;;;5120615;28;20182;-69
2022/04/24 13:59:44;;;;;;;;;;;9.00;99.90;;;;;;5121003;28;19920;-69
2022/04/24 14:02:10;;;;;;;;;;;9.00;99.90;;;;;;5115256;28;20260;-70
2022/04/24 14:04:38;;;;;;;;;;;9.00;99.90;;;;;;5123565;28;19920;-68
2022/04/24 14:07:06;;;;;;;;;;;9.00;99.90;;;;;;5111172;28;20220;-68
2022/04/24 14:09:32;;;;;;;;;;;9.10;99.90;;;;;;5120252;28;20092;-68
2022/04/24 14:11:59;;;;;;;;;;;9.20;99.90;;;;;;5108922;28;19920;-68
2022/04/24 14:14:26;;;;;;;;;;;9.20;99.90;;;;;;5113101;28;19927;-68
2022/04/24 14:16:52;;;;;;;;;;;9.20;99.90;;;;;;5116882;28;19955;-69
2022/04/24 14:19:19;;;;;;;;;;;9.20;99.90;;;;;;5122176;28;19927;-68
2022/04/24 14:21:49;;;;;;;;;;;9.10;99.90;;;;;;5113335;28;19930;-68
2022/04/24 14:24:18;;;;;;;;;;;9.20;99.90;;;;;;5114924;28;20238;-68
2022/04/24 14:26:44;;;;;;;;;;;9.30;99.90;;;;;;5113589;28;19926;-68
2022/04/24 14:29:11;;;;;;;;;;;9.30;99.90;;;;;;5112473;28;19983;-69
2022/04/24 14:31:38;;;;;;;;;;;9.30;99.90;;;;;;5123160;28;20111;-68
2022/04/24 14:34:04;;;;;;;;;;;9.30;99.90;;;;;;5124957;28;19926;-70
2022/04/24 14:36:31;;;;;;;;;;;9.40;99.90;;;;;;5120440;28;19926;-70
2022/04/24 14:38:59;;;;;;;;;;;9.30;99.90;;;;;;5116980;28;19919;-70
2022/04/24 14:41:25;;;;;;;;;;;9.30;99.90;;;;;;5117563;28;19924;-69
2022/04/24 14:43:54;;;;;;;;;;;9.40;99.90;;;;;;5121274;28;19919;-70